.
WxDataArchive / Data Records for 2008-12-27
2008-12-26 December 2008 2008-12-28

Data Records for Saturday, 27 December 2008

Time	Temp	Chill	HIndex	Humid	Dewpt	 Wind 	HiWind	WindDir	Rain 	Barom 
-----	----	-----	------	-----	-----	------	------	-------	-----	----- 
00:00	52.0	52.0	52.0	98	51.5	1	3	292	0.01	29.966 
00:05	51.9	51.9	51.9	98	51.4	1	4	22	0.00	29.965 
00:10	51.9	51.9	51.9	98	51.4	1	3	45	0.00	29.959 
00:15	52.0	52.0	52.0	98	51.5	1	3	68	0.00	29.957 
00:20	51.9	51.9	51.9	98	51.4	1	3	68	0.00	29.958 
00:25	51.9	51.9	51.9	98	51.4	1	3	0	0.00	29.959 
00:30	52.0	52.0	52.0	98	51.5	1	4	315	0.00	29.956 
00:35	52.2	52.2	52.2	98	51.7	1	4	0	0.00	29.955 
00:40	52.2	52.2	52.2	98	51.7	1	3	315	0.00	29.953 
00:45	52.2	52.2	52.2	98	51.7	1	2	135	0.00	29.951 
00:50	52.3	52.3	52.3	98	51.8	1	4	292	0.00	29.948 
00:55	52.6	52.6	52.6	98	52.0	1	7	68	0.01	29.941 
01:00	52.8	52.8	52.8	98	52.2	1	4	90	0.00	29.939 
01:05	52.8	52.8	52.8	98	52.2	1	5	292	0.00	29.937 
01:10	52.8	52.8	52.8	98	52.2	1	3	248	0.00	29.936 
01:15	53.1	53.1	53.1	98	52.5	1	3	270	0.00	29.934 
01:20	53.2	53.2	53.2	98	52.6	1	5	248	0.00	29.933 
01:25	53.3	53.3	53.3	98	52.7	1	4	225	0.00	29.933 
01:30	53.6	53.6	53.6	98	53.0	2	5	248	0.00	29.935 
01:35	53.6	53.6	53.6	98	53.0	2	5	248	0.00	29.935 
01:40	53.6	53.6	53.6	98	53.0	2	6	248	0.00	29.935 
01:45	53.5	53.5	53.5	98	52.9	2	6	270	0.00	29.930 
01:50	53.3	53.3	53.3	98	52.7	1	5	270	0.00	29.930 
01:55	53.3	53.3	53.3	98	52.7	2	5	248	0.01	29.933 
02:00	53.6	53.6	53.6	98	53.0	2	6	292	0.00	29.931 
02:05	53.5	53.5	53.5	98	52.9	1	6	0	0.00	29.929 
02:10	53.5	53.5	53.5	98	52.9	2	7	270	0.00	29.927 
02:15	53.6	53.6	53.6	98	53.0	2	9	270	0.00	29.927 
02:20	53.8	53.8	53.8	98	53.2	2	6	270	0.00	29.931 
02:25	53.8	53.8	53.8	98	53.2	2	9	248	0.00	29.930 
02:30	53.9	53.9	53.9	98	53.3	3	6	248	0.00	29.933 
02:35	54.1	54.1	54.1	98	53.5	3	10	270	0.00	29.934 
02:40	54.1	54.1	54.1	98	53.5	2	6	270	0.00	29.934 
02:45	54.1	54.1	54.1	98	53.5	2	8	248	0.00	29.933 
02:50	54.1	54.1	54.1	98	53.5	2	6	248	0.00	29.932 
02:55	54.1	54.1	54.1	98	53.5	2	7	270	0.00	29.934 
03:00	54.2	54.2	54.2	98	53.6	2	7	248	0.00	29.935 
03:05	54.2	54.2	54.2	98	53.6	3	7	270	0.00	29.934 
03:10	54.4	54.4	54.4	98	53.8	2	6	270	0.00	29.931 
03:15	54.2	54.2	54.2	98	53.6	3	6	270	0.00	29.931 
03:20	54.4	54.4	54.4	98	53.8	2	6	248	0.00	29.930 
03:25	54.4	54.4	54.4	98	53.8	2	6	248	0.00	29.930 
03:30	54.5	54.5	54.5	98	53.9	2	9	248	0.00	29.926 
03:35	54.5	54.5	54.5	98	53.9	2	9	248	0.00	29.925 
03:40	54.5	54.5	54.5	98	53.9	2	7	248	0.00	29.920 
03:45	54.5	54.5	54.5	98	53.9	2	6	270	0.00	29.919 
03:50	54.5	54.5	54.5	98	53.9	2	5	248	0.00	29.919 
03:55	54.5	54.5	54.5	98	53.9	2	9	248	0.00	29.917 
04:00	54.5	54.5	54.5	98	53.9	2	7	248	0.00	29.916 
04:05	54.7	54.7	54.7	98	54.1	2	6	248	0.00	29.916 
04:10	54.7	54.7	54.7	98	54.1	2	7	270	0.00	29.915 
04:15	54.7	54.7	54.7	97	53.9	2	7	225	0.00	29.910 
04:20	54.7	54.7	54.7	97	53.9	2	6	270	0.00	29.910 
04:25	54.8	54.8	54.8	97	54.0	2	5	248	0.00	29.905 
04:30	54.7	54.7	54.7	97	53.9	1	5	248	0.00	29.903 
04:35	54.8	54.8	54.8	97	54.0	1	5	270	0.00	29.902 
04:40	54.8	54.8	54.8	97	54.0	1	5	292	0.00	29.902 
04:45	54.8	54.8	54.8	97	54.0	1	5	45	0.00	29.902 
04:50	54.8	54.8	54.8	97	54.0	1	6	270	0.00	29.901 
04:55	54.8	54.8	54.8	97	54.0	1	7	248	0.00	29.899 
05:00	54.8	54.8	54.8	96	53.7	1	6	68	0.00	29.897 
05:05	55.1	55.1	55.1	96	54.0	2	10	270	0.00	29.891 
05:10	55.3	55.3	55.3	96	54.2	2	7	248	0.00	29.888 
05:15	55.3	55.3	55.3	96	54.2	2	6	248	0.00	29.885 
05:20	55.4	55.4	55.4	96	54.3	2	10	248	0.00	29.884 
05:25	55.4	55.4	55.4	96	54.3	2	6	270	0.00	29.884 
05:30	55.6	55.6	55.6	96	54.5	2	7	338	0.00	29.883 
05:35	55.7	55.7	55.7	96	54.6	2	6	292	0.00	29.882 
05:40	56.0	56.0	56.0	96	54.9	3	9	225	0.00	29.879 
05:45	56.2	56.2	56.2	95	54.8	2	5	248	0.00	29.875 
05:50	56.2	56.2	56.2	95	54.8	2	7	45	0.00	29.872 
05:55	56.3	56.3	56.3	95	54.9	2	6	248	0.00	29.870 
06:00	56.5	56.5	56.5	94	54.8	3	9	248	0.00	29.866 
06:05	56.6	56.6	56.6	94	54.9	3	9	292	0.00	29.866 
06:10	56.7	56.7	56.7	94	55.0	3	14	0	0.00	29.865 
06:15	56.7	56.7	56.7	93	54.7	2	9	315	0.00	29.866 
06:20	56.9	56.9	56.9	94	55.2	3	11	0	0.00	29.865 
06:25	57.0	57.0	57.0	93	55.0	2	12	270	0.00	29.865 
06:30	57.0	57.0	57.0	93	55.0	3	11	270	0.00	29.866 
06:35	57.2	57.2	57.2	93	55.2	2	10	270	0.00	29.866 
06:40	57.3	57.3	57.3	93	55.3	3	9	270	0.00	29.866 
06:45	57.6	57.6	57.6	93	55.6	3	7	270	0.00	29.866 
06:50	57.6	57.6	57.6	92	55.3	3	6	248	0.00	29.866 
06:55	57.6	57.6	57.6	92	55.3	3	10	270	0.00	29.866 
07:00	57.8	57.8	57.8	92	55.5	3	9	270	0.00	29.865 
07:05	57.8	57.8	57.8	92	55.5	3	11	270	0.00	29.859 
07:10	57.6	57.6	57.6	92	55.3	2	7	248	0.00	29.858 
07:15	57.8	57.8	57.8	92	55.5	3	11	270	0.00	29.861 
07:20	58.0	58.0	58.0	92	55.7	3	9	248	0.00	29.860 
07:25	58.0	58.0	58.0	92	55.7	3	9	270	0.00	29.853 
07:30	58.1	58.1	58.1	92	55.8	2	10	270	0.00	29.849 
07:35	58.0	58.0	58.0	92	55.7	2	7	248	0.00	29.848 
07:40	58.0	58.0	58.0	91	55.4	2	7	225	0.00	29.847 
07:45	58.1	58.1	58.1	92	55.8	3	7	248	0.00	29.846 
07:50	58.1	58.1	58.1	91	55.5	2	9	248	0.00	29.846 
07:55	58.3	58.3	58.3	91	55.7	3	10	248	0.00	29.846 
08:00	58.3	58.3	58.3	91	55.7	2	5	315	0.00	29.845 
08:05	58.3	58.3	58.3	91	55.7	3	7	248	0.00	29.842 
08:10	58.4	58.4	58.4	91	55.8	3	9	248	0.00	29.842 
08:15	58.6	58.6	58.6	91	56.0	3	8	248	0.00	29.842 
08:20	58.7	58.7	58.7	90	55.8	4	15	68	0.00	29.842 
08:25	58.9	58.9	58.9	90	56.0	4	14	270	0.00	29.843 
08:30	58.9	58.9	58.9	90	56.0	3	12	270	0.00	29.843 
08:35	58.9	58.9	58.9	90	56.0	3	8	270	0.00	29.841 
08:40	58.9	58.9	58.9	90	56.0	3	10	248	0.00	29.841 
08:45	59.2	59.2	59.2	90	56.3	4	11	248	0.00	29.844 
08:50	59.3	59.3	59.3	89	56.1	3	10	292	0.00	29.843 
08:55	59.5	59.5	59.5	89	56.3	3	9	248	0.00	29.845 
09:00	59.5	59.5	59.5	89	56.3	4	10	248	0.00	29.847 
09:05	59.5	59.5	59.5	89	56.3	4	11	248	0.00	29.846 
09:10	59.6	59.6	59.6	88	56.0	4	11	270	0.00	29.847 
09:15	59.8	59.8	59.8	88	56.2	4	13	248	0.00	29.843 
09:20	59.9	59.9	59.9	88	56.3	3	9	270	0.00	29.841 
09:25	59.9	59.9	59.9	88	56.3	5	11	248	0.00	29.843 
09:30	59.9	59.9	59.9	88	56.3	3	7	248	0.00	29.838 
09:35	60.1	60.1	60.1	88	56.5	3	10	248	0.00	29.836 
09:40	60.2	60.2	60.2	88	56.6	3	9	248	0.00	29.836 
09:45	60.4	60.4	60.4	87	56.5	3	13	270	0.00	29.835 
09:50	60.5	60.5	60.5	87	56.6	5	13	248	0.00	29.831 
09:55	60.7	60.7	60.7	87	56.8	4	17	248	0.00	29.831 
10:00	60.9	60.9	60.9	86	56.7	4	10	248	0.00	29.830 
10:05	60.9	60.9	60.9	86	56.7	3	9	270	0.00	29.831 
10:10	61.2	61.2	61.2	86	57.0	4	12	270	0.00	29.828 
10:15	61.3	61.3	61.3	86	57.1	5	17	270	0.00	29.832 
10:20	61.6	61.6	61.6	85	57.0	4	10	248	0.00	29.835 
10:25	61.8	61.8	61.8	84	56.9	4	12	248	0.00	29.836 
10:30	61.8	61.8	61.8	84	56.9	4	10	248	0.00	29.837 
10:35	62.0	62.0	62.0	84	57.1	4	11	248	0.00	29.836 
10:40	62.1	62.1	62.1	84	57.2	3	9	270	0.00	29.835 
10:45	62.1	62.1	62.1	84	57.2	4	10	270	0.00	29.834 
10:50	62.1	62.1	62.1	84	57.2	3	10	248	0.00	29.831 
10:55	62.1	62.1	62.1	84	57.2	3	10	248	0.00	29.830 
11:00	62.4	62.4	62.4	84	57.5	4	10	270	0.00	29.823 
11:05	62.4	62.4	62.4	83	57.2	3	7	270	0.00	29.819 
11:10	62.7	62.7	62.7	83	57.5	4	13	270	0.00	29.824 
11:15	62.7	62.7	62.7	83	57.5	5	15	248	0.00	29.817 
11:20	62.7	62.7	62.7	83	57.5	4	10	248	0.00	29.817 
11:25	62.6	62.6	62.6	83	57.4	4	13	270	0.00	29.816 
11:30	62.6	62.6	62.6	83	57.4	3	9	248	0.00	29.812 
11:35	62.6	62.6	62.6	83	57.4	3	9	248	0.00	29.808 
11:40	62.9	62.9	62.9	83	57.7	4	11	270	0.00	29.802 
11:45	63.2	63.2	63.2	82	57.6	5	16	270	0.00	29.798 
11:50	63.7	63.7	63.7	82	58.1	4	12	248	0.00	29.794 
11:55	63.7	63.7	63.7	81	57.8	4	11	270	0.00	29.792 
12:00	63.4	63.4	63.4	81	57.5	3	9	248	0.00	29.788 
12:05	63.4	63.4	63.4	82	57.8	4	10	248	0.00	29.784 
12:10	63.2	63.2	63.2	82	57.6	3	10	270	0.00	29.782 
12:15	63.1	63.1	63.1	82	57.5	4	12	270	0.00	29.780 
12:20	63.4	63.4	63.4	82	57.8	5	14	248	0.00	29.775 
12:25	63.5	63.5	63.5	82	57.9	4	12	270	0.00	29.772 
12:30	63.9	63.9	63.9	81	57.9	5	17	248	0.00	29.769 
12:35	63.9	63.9	63.9	81	57.9	3	13	248	0.00	29.769 
12:40	63.9	63.9	63.9	81	57.9	4	10	248	0.00	29.767 
12:45	63.9	63.9	63.9	81	57.9	5	13	248	0.00	29.763 
12:50	63.9	63.9	63.9	81	57.9	3	9	248	0.00	29.757 
12:55	64.0	64.0	64.0	81	58.0	4	11	270	0.00	29.754 
13:00	64.2	64.2	64.2	81	58.2	3	6	248	0.00	29.751 
13:05	64.2	64.2	64.2	81	58.2	3	8	248	0.00	29.749 
13:10	64.3	64.3	64.3	80	58.0	6	15	248	0.00	29.738 
13:15	64.3	64.3	64.3	80	58.0	4	13	270	0.00	29.738 
13:20	64.3	64.3	64.3	80	58.0	3	10	248	0.00	29.736 
13:25	64.3	64.3	64.3	80	58.0	3	9	270	0.00	29.735 
13:30	64.3	64.3	64.3	80	58.0	4	11	270	0.00	29.732 
13:35	64.3	64.3	64.3	80	58.0	3	9	248	0.00	29.725 
13:40	64.2	64.2	64.2	80	57.9	4	11	270	0.00	29.727 
13:45	64.2	64.2	64.2	81	58.2	4	9	270	0.00	29.725 
13:50	64.2	64.2	64.2	81	58.2	3	12	248	0.00	29.721 
13:55	64.2	64.2	64.2	81	58.2	2	9	248	0.00	29.720 
14:00	64.2	64.2	64.2	81	58.2	2	6	248	0.00	29.718 
14:05	64.2	64.2	64.2	81	58.2	4	11	270	0.00	29.719 
14:10	64.2	64.2	64.2	80	57.9	2	11	270	0.00	29.717 
14:15	64.0	64.0	64.0	80	57.7	3	13	270	0.00	29.716 
14:20	64.0	64.0	64.0	80	57.7	2	5	270	0.00	29.715 
14:25	64.0	64.0	64.0	80	57.7	3	13	270	0.00	29.714 
14:30	64.0	64.0	64.0	80	57.7	3	7	315	0.00	29.710 
14:35	64.0	64.0	64.0	80	57.7	3	9	292	0.00	29.707 
14:40	64.0	64.0	64.0	80	57.7	2	7	90	0.00	29.707 
14:45	64.0	64.0	64.0	80	57.7	4	12	90	0.00	29.703 
14:50	64.2	64.2	64.2	80	57.9	4	10	270	0.00	29.697 
14:55	64.3	64.3	64.3	79	57.6	3	9	90	0.00	29.691 
15:00	64.3	64.3	64.3	79	57.6	4	12	90	0.00	29.688 
15:05	64.3	64.3	64.3	79	57.6	5	14	90	0.00	29.687 
15:10	64.5	64.5	64.5	79	57.8	4	9	90	0.00	29.678 
15:15	64.8	64.8	64.8	78	57.8	6	14	90	0.00	29.672 
15:20	64.8	64.8	64.8	78	57.8	4	10	90	0.00	29.672 
15:25	64.5	64.5	64.5	78	57.5	4	10	90	0.00	29.672 
15:30	64.3	64.3	64.3	78	57.3	5	14	90	0.00	29.676 
15:35	64.3	64.3	64.3	79	57.6	4	11	90	0.00	29.678 
15:40	64.2	64.2	64.2	79	57.5	5	12	90	0.00	29.678 
15:45	64.2	64.2	64.2	78	57.2	5	13	112	0.00	29.680 
15:50	64.2	64.2	64.2	79	57.5	4	11	90	0.00	29.680 
15:55	64.0	64.0	64.0	79	57.4	5	11	292	0.00	29.674 
16:00	64.0	64.0	64.0	78	57.0	5	14	68	0.00	29.673 
16:05	64.0	64.0	64.0	78	57.0	5	14	90	0.00	29.674 
16:10	64.0	64.0	64.0	78	57.0	4	11	68	0.00	29.672 
16:15	63.9	63.9	63.9	78	56.9	3	10	270	0.00	29.672 
16:20	63.9	63.9	63.9	78	56.9	5	14	90	0.00	29.668 
16:25	63.9	63.9	63.9	78	56.9	6	19	90	0.00	29.667 
16:30	63.9	63.9	63.9	78	56.9	4	9	68	0.00	29.656 
16:35	63.9	63.9	63.9	77	56.5	6	18	90	0.00	29.653 
16:40	64.0	64.0	64.0	77	56.6	6	15	68	0.00	29.653 
16:45	64.0	64.0	64.0	77	56.6	5	12	68	0.00	29.654 
16:50	63.9	63.9	63.9	77	56.5	5	16	90	0.00	29.650 
16:55	63.9	63.9	63.9	77	56.5	5	13	90	0.00	29.649 
17:00	63.9	63.9	63.9	77	56.5	5	15	90	0.00	29.649 
17:05	64.0	64.0	64.0	77	56.6	6	17	90	0.00	29.643 
17:10	64.0	64.0	64.0	76	56.3	5	13	68	0.00	29.644 
17:15	64.0	64.0	64.0	76	56.3	6	12	112	0.00	29.638 
17:20	64.0	64.0	64.0	76	56.3	4	11	68	0.00	29.637 
17:25	64.0	64.0	64.0	76	56.3	5	19	90	0.00	29.636 
17:30	64.2	64.2	64.2	76	56.5	6	12	90	0.00	29.627 
17:35	64.2	64.2	64.2	75	56.1	5	14	68	0.00	29.631 
17:40	64.2	64.2	64.2	75	56.1	5	15	68	0.00	29.628 
17:45	64.2	64.2	64.2	75	56.1	5	17	68	0.00	29.624 
17:50	64.3	64.3	64.3	75	56.2	6	14	68	0.00	29.623 
17:55	64.3	64.3	64.3	74	55.8	5	14	68	0.00	29.623 
18:00	64.2	64.2	64.2	74	55.7	4	11	90	0.00	29.622 
18:05	64.3	64.3	64.3	74	55.8	6	16	68	0.00	29.616 
18:10	64.5	64.5	64.5	73	55.6	5	11	90	0.00	29.610 
18:15	64.3	64.3	64.3	73	55.5	5	12	90	0.00	29.607 
18:20	64.5	64.5	64.5	73	55.6	5	15	68	0.00	29.610 
18:25	64.5	64.5	64.5	73	55.6	5	13	90	0.00	29.603 
18:30	64.5	64.5	64.5	73	55.6	4	17	90	0.00	29.608 
18:35	64.5	64.5	64.5	73	55.6	6	16	270	0.00	29.612 
18:40	64.5	64.5	64.5	73	55.6	5	17	270	0.00	29.620 
18:45	64.5	64.5	64.5	73	55.6	6	16	270	0.00	29.653 
18:50	62.3	62.3	62.3	74	53.9	6	12	270	0.07	29.701 
18:55	58.3	58.3	58.3	84	53.5	5	12	270	0.05	29.713 
19:00	56.6	56.6	56.6	88	53.1	5	12	270	0.04	29.703 
19:05	55.9	55.9	55.9	89	52.7	3	7	270	0.01	29.698 
19:10	55.4	55.4	55.4	91	52.8	4	9	270	0.01	29.706 
19:15	55.1	55.1	55.1	92	52.8	3	7	270	0.02	29.716 
19:20	55.0	55.0	55.0	92	52.7	2	6	270	0.01	29.716 
19:25	54.8	54.8	54.8	93	52.8	2	5	270	0.01	29.709 
19:30	54.7	54.7	54.7	93	52.7	1	4	270	0.00	29.709 
19:35	54.5	54.5	54.5	93	52.5	1	6	270	0.00	29.721 
19:40	54.4	54.4	54.4	94	52.7	1	6	248	0.01	29.725 
19:45	54.4	54.4	54.4	94	52.7	1	5	248	0.01	29.715 
19:50	54.2	54.2	54.2	94	52.5	1	5	248	0.01	29.711 
19:55	54.1	54.1	54.1	94	52.4	0	1	248	0.00	29.706 
20:00	54.1	54.1	54.1	94	52.4	1	4	248	0.01	29.709 
20:05	53.9	53.9	53.9	95	52.5	0	1	248	0.00	29.697 
20:10	53.8	53.8	53.8	95	52.4	0	1	248	0.01	29.695 
20:15	53.6	53.6	53.6	95	52.2	0	1	248	0.00	29.706 
20:20	53.5	53.5	53.5	95	52.1	0	1	248	0.00	29.719 
20:25	53.5	53.5	53.5	95	52.1	0	1	248	0.01	29.705 
20:30	53.3	53.3	53.3	95	51.9	0	1	248	0.00	29.710 
20:35	53.2	53.2	53.2	95	51.8	0	1	248	0.01	29.710 
20:40	53.2	53.2	53.2	95	51.8	0	2	112	0.00	29.696 
20:45	53.2	53.2	53.2	95	51.8	1	2	112	0.01	29.693 
20:50	53.3	53.3	53.3	96	52.2	0	2	112	0.00	29.695 
20:55	53.3	53.3	53.3	96	52.2	1	5	112	0.00	29.686 
21:00	53.3	53.3	53.3	96	52.2	1	2	135	0.01	29.689 
21:05	53.2	53.2	53.2	96	52.1	1	4	112	0.00	29.676 
21:10	53.2	53.2	53.2	96	52.1	1	2	135	0.01	29.675 
21:15	53.1	53.1	53.1	96	52.0	1	3	90	0.00	29.672 
21:20	53.1	53.1	53.1	96	52.0	1	2	112	0.00	29.661 
21:25	52.9	52.9	52.9	96	51.8	1	4	135	0.01	29.652 
21:30	52.9	52.9	52.9	96	51.8	2	6	112	0.01	29.650 
21:35	52.9	52.9	52.9	96	51.8	1	4	135	0.00	29.652 
21:40	52.9	52.9	52.9	96	51.8	1	3	68	0.00	29.661 
21:45	52.8	52.8	52.8	96	51.7	1	4	112	0.01	29.656 
21:50	52.8	52.8	52.8	96	51.7	1	5	112	0.02	29.646 
21:55	52.8	52.8	52.8	96	51.7	1	5	90	0.01	29.644 
22:00	52.6	52.6	52.6	96	51.5	2	5	112	0.01	29.645 
22:05	52.6	52.6	52.6	96	51.5	1	4	112	0.01	29.642 
22:10	52.6	52.6	52.6	96	51.5	1	3	90	0.01	29.632 
22:15	52.6	52.6	52.6	96	51.5	2	4	112	0.01	29.633 
22:20	52.6	52.6	52.6	96	51.5	2	3	112	0.03	29.633 
22:25	52.8	52.8	52.8	97	52.0	2	5	112	0.03	29.632 
22:30	52.8	52.8	52.8	97	52.0	2	5	90	0.05	29.631 
22:35	52.9	52.9	52.9	97	52.1	1	4	90	0.05	29.626 
22:40	52.9	52.9	52.9	97	52.1	1	3	112	0.02	29.616 
22:45	52.9	52.9	52.9	97	52.1	1	5	112	0.01	29.616 
22:50	53.1	53.1	53.1	97	52.3	1	4	112	0.02	29.622 
22:55	53.2	53.2	53.2	97	52.4	1	5	112	0.01	29.613 
23:00	53.3	53.3	53.3	97	52.5	1	3	112	0.01	29.612 
23:05	53.8	53.8	53.8	97	53.0	1	7	68	0.02	29.605 
23:10	54.1	54.1	54.1	97	53.3	1	5	68	0.01	29.600 
23:15	54.4	54.4	54.4	97	53.6	1	4	0	0.01	29.593 
23:20	54.5	54.5	54.5	97	53.7	1	3	180	0.00	29.591 
23:25	54.8	54.8	54.8	97	54.0	2	11	68	0.01	29.594 
23:30	55.1	55.1	55.1	97	54.3	2	5	270	0.01	29.592 
23:35	55.4	55.4	55.4	97	54.6	3	6	248	0.00	29.588 
23:40	55.6	55.6	55.6	97	54.8	3	7	90	0.01	29.577 
23:45	55.9	55.9	55.9	97	55.1	4	11	90	0.00	29.564 
23:50	55.9	55.9	55.9	97	55.1	3	6	45	0.00	29.564 
23:55	55.9	55.9	55.9	97	55.1	2	6	90	0.01	29.566 

CoCoRaHS
IN-AL-39
A2 Web Hosting
Creative Commons License
GoDaddy
search engine by freefind advanced

loaded 2018-11-17 12:03:53 • last modified 2010-11-18 10:43:29
Privacy PolicyDisclaimer
• wx.awcolley.com is powered by PmWiki v.2002016 •
• all content (unless otherwise noted) © 2018 A W Colley